Time;durP1;ratioP1;P1;durP2;ratioP2;P2;SDS_P1;SDS_P2;PMS_P1;PMS_P2;Temp;Humidity;BMP_temperature;BMP_pressure;BME280_temperature;BME280_humidity;BME280_pressure;Samples;Min_cycle;Max_cycle;Signal;HPM_P1;HPM_P2
2022/07/24 00:00:29;;;;;;;15.30;12.75;;;;;;;20.84;63.90;101922.00;4939512;28;20118;-66
2022/07/24 00:02:54;;;;;;;15.10;12.70;;;;;;;20.85;64.08;101921.13;4942155;28;20027;-65
2022/07/24 00:05:20;;;;;;;15.85;13.13;;;;;;;20.87;63.67;101922.00;4941383;28;20398;-64
2022/07/24 00:07:45;;;;;;;17.42;12.90;;;;;;;20.80;63.75;101924.59;4945254;28;20120;-65
2022/07/24 00:10:11;;;;;;;16.90;12.82;;;;;;;20.75;64.46;101911.53;4939384;28;20039;-65
2022/07/24 00:12:37;;;;;;;17.23;13.25;;;;;;;20.72;64.90;101918.47;4939673;28;20035;-65
2022/07/24 00:15:04;;;;;;;15.73;12.75;;;;;;;20.72;64.47;101919.34;4944535;28;20066;-64
2022/07/24 00:17:29;;;;;;;14.80;11.90;;;;;;;20.66;64.85;101916.72;4942894;28;20413;-64
2022/07/24 00:19:55;;;;;;;16.30;12.57;;;;;;;20.62;65.01;101912.34;4942156;28;20046;-65
2022/07/24 00:22:20;;;;;;;14.10;12.25;;;;;;;20.60;64.91;101917.56;4940954;28;20039;-65
2022/07/24 00:24:46;;;;;;;16.70;12.55;;;;;;;20.57;65.25;101909.72;4940856;28;20114;-65
2022/07/24 00:27:11;;;;;;;15.65;11.95;;;;;;;20.56;65.13;101904.47;4944145;28;20039;-64
2022/07/24 00:29:37;;;;;;;16.88;12.05;;;;;;;20.55;65.24;101910.56;4939792;28;20034;-65
2022/07/24 00:32:02;;;;;;;13.13;11.77;;;;;;;20.52;65.50;101908.84;4942705;28;20041;-65
2022/07/24 00:34:28;;;;;;;14.52;12.32;;;;;;;20.46;65.64;101906.19;4942481;28;20479;-65
2022/07/24 00:36:53;;;;;;;17.25;12.30;;;;;;;20.47;65.39;101920.13;4941268;28;20505;-65
2022/07/24 00:39:19;;;;;;;14.85;11.82;;;;;;;20.47;64.99;101912.28;4940204;28;20031;-65
2022/07/24 00:41:44;;;;;;;14.60;12.00;;;;;;;20.41;65.30;101914.84;4945491;28;20067;-64
2022/07/24 00:44:13;;;;;;;14.90;11.57;;;;;;;20.45;65.48;101919.22;4938891;28;20181;-65
2022/07/24 00:46:40;;;;;;;14.40;11.63;;;;;;;20.43;65.57;101918.34;4940937;28;20043;-65
2022/07/24 00:49:08;;;;;;;15.02;11.77;;;;;;;20.41;65.39;101925.31;4940352;28;20489;-65
2022/07/24 00:51:33;;;;;;;14.70;11.98;;;;;;;20.39;65.33;101914.84;4939965;28;20424;-65
2022/07/24 00:53:59;;;;;;;15.73;11.38;;;;;;;20.39;64.83;101921.81;4939788;28;21917;-66
2022/07/24 00:56:25;;;;;;;13.57;12.00;;;;;;;20.38;65.48;101918.31;4940081;28;20386;-66
2022/07/24 00:58:51;;;;;;;13.85;11.38;;;;;;;20.38;65.08;101915.69;4941381;28;20470;-66
2022/07/24 01:01:17;;;;;;;13.85;11.45;;;;;;;20.32;65.20;101913.97;4939292;28;20051;-65
2022/07/24 01:03:42;;;;;;;14.45;10.98;;;;;;;20.32;64.88;101911.34;4940317;28;20031;-66
2022/07/24 01:06:08;;;;;;;15.52;11.10;;;;;;;20.26;64.99;101916.53;4952312;28;20034;-65
2022/07/24 01:08:34;;;;;;;15.77;11.50;;;;;;;20.28;64.95;101916.53;4941322;28;20027;-66
2022/07/24 01:11:02;;;;;;;16.15;11.13;;;;;;;20.28;65.23;101911.31;4937545;28;20031;-66
2022/07/24 01:13:29;;;;;;;13.02;11.63;;;;;;;20.22;65.14;101906.06;4937413;28;20034;-65
2022/07/24 01:15:54;;;;;;;16.05;11.30;;;;;;;20.23;65.25;101898.22;4944106;28;20050;-66
2022/07/24 01:18:20;;;;;;;13.32;11.02;;;;;;;20.19;64.97;101901.69;4938574;28;20051;-66
2022/07/24 01:20:47;;;;;;;12.90;11.20;;;;;;;20.18;65.35;101901.69;4938973;28;20028;-66
2022/07/24 01:23:13;;;;;;;13.50;11.38;;;;;;;20.14;65.22;101894.69;4935421;28;20038;-66
2022/07/24 01:25:39;;;;;;;14.65;10.80;;;;;;;20.10;65.86;101888.59;4940611;28;21043;-66
2022/07/24 01:28:04;;;;;;;14.48;11.23;;;;;;;20.10;65.51;101885.97;4940862;28;20069;-66
2022/07/24 01:30:30;;;;;;;12.20;10.50;;;;;;;20.10;65.41;101885.97;4938847;28;20763;-66
2022/07/24 01:32:55;;;;;;;14.57;10.98;;;;;;;20.03;66.42;101881.59;4939087;28;20486;-66
2022/07/24 01:35:20;;;;;;;12.38;10.73;;;;;;;20.02;65.51;101888.56;4937406;28;20177;-65
2022/07/24 01:37:46;;;;;;;12.95;10.65;;;;;;;20.00;66.20;101887.66;4934576;28;20401;-66
2022/07/24 01:40:11;;;;;;;13.77;11.38;;;;;;;20.00;65.94;101889.41;4941286;28;20035;-66
2022/07/24 01:42:37;;;;;;;14.00;10.90;;;;;;;19.94;66.01;101891.97;4940920;28;20039;-66
2022/07/24 01:45:03;;;;;;;12.68;11.07;;;;;;;19.95;65.86;101896.31;4940173;28;20061;-64
2022/07/24 01:47:28;;;;;;;14.38;10.57;;;;;;;19.93;66.60;101892.84;4939963;28;20108;-65
2022/07/24 01:49:54;;;;;;;15.35;11.13;;;;;;;19.92;66.20;101893.72;4939394;28;20032;-66
2022/07/24 01:52:19;;;;;;;13.02;10.85;;;;;;;19.85;67.15;101895.41;4936940;28;20035;-65
2022/07/24 01:54:44;;;;;;;13.55;10.95;;;;;;;19.83;66.53;101887.56;4939635;28;20038;-67
2022/07/24 01:57:10;;;;;;;13.48;11.63;;;;;;;19.81;66.41;101883.19;4933563;28;20031;-65
2022/07/24 01:59:35;;;;;;;16.55;11.27;;;;;;;19.82;66.87;101885.81;4936043;28;20035;-66
2022/07/24 02:02:01;;;;;;;13.40;10.63;;;;;;;19.76;66.83;101885.78;4941466;28;20046;-66
2022/07/24 02:04:26;;;;;;;16.30;11.80;;;;;;;19.71;67.57;101874.44;4930916;28;20118;-65
2022/07/24 02:06:51;;;;;;;13.88;11.35;;;;;;;19.70;67.17;101884.88;4936767;28;20039;-65
2022/07/24 02:09:17;;;;;;;12.20;10.85;;;;;;;19.69;67.90;101883.13;4933539;28;20050;-65
2022/07/24 02:11:42;;;;;;;14.07;10.80;;;;;;;19.65;67.75;101890.03;4934928;28;22549;-66
2022/07/24 02:14:08;;;;;;;16.85;11.02;;;;;;;19.62;67.89;101890.03;4951735;28;20050;-65
2022/07/24 02:16:33;;;;;;;14.52;10.70;;;;;;;19.61;67.55;101890.91;4939740;28;20110;-65
2022/07/24 02:18:59;;;;;;;12.10;10.80;;;;;;;19.58;67.76;101885.66;4940245;28;20101;-66
2022/07/24 02:21:24;;;;;;;11.48;10.27;;;;;;;19.56;67.95;101893.44;4937930;28;20043;-65
2022/07/24 02:23:50;;;;;;;14.68;9.95;;;;;;;19.56;68.19;101889.97;4939557;28;20035;-65
2022/07/24 02:26:15;;;;;;;12.20;10.07;;;;;;;19.51;68.11;101882.09;4935242;28;20035;-65
2022/07/24 02:28:40;;;;;;;15.95;10.50;;;;;;;19.52;67.75;101875.13;4935559;28;20137;-65
2022/07/24 02:31:06;;;;;;;13.25;10.30;;;;;;;19.53;67.70;101871.66;4938304;28;20041;-65
2022/07/24 02:33:31;;;;;;;10.48;9.38;;;;;;;19.56;67.83;101883.00;4939140;28;20058;-66
2022/07/24 02:35:57;;;;;;;14.35;10.35;;;;;;;19.51;68.11;101876.00;4935183;28;20035;-66
2022/07/24 02:38:22;;;;;;;11.55;10.30;;;;;;;19.45;68.43;101873.34;4938186;28;20038;-65
2022/07/24 02:40:48;;;;;;;13.90;10.20;;;;;;;19.49;68.44;101883.81;4934310;28;20032;-65
2022/07/24 02:43:13;;;;;;;14.10;10.23;;;;;;;19.43;68.85;101882.91;4937979;28;20038;-65
2022/07/24 02:45:38;;;;;;;12.07;9.65;;;;;;;19.37;68.94;101882.88;4935850;28;20035;-65
2022/07/24 02:48:04;;;;;;;12.73;10.20;;;;;;;19.36;69.26;101888.94;4934493;28;20489;-66
2022/07/24 02:50:33;;;;;;;14.40;10.10;;;;;;;19.36;68.81;101888.94;4934855;28;20528;-66
2022/07/24 02:52:58;;;;;;;12.40;9.80;;;;;;;19.34;68.45;101886.31;4935394;28;20039;-66
2022/07/24 02:55:26;;;;;;;14.80;10.10;;;;;;;19.32;68.93;101887.16;4938096;28;20043;-66
2022/07/24 02:57:51;;;;;;;12.55;9.90;;;;;;;19.28;68.97;101892.34;4938382;28;20513;-66
2022/07/24 03:00:17;;;;;;;12.23;9.80;;;;;;;19.27;69.16;101889.72;4940563;28;20134;-65
2022/07/24 03:02:43;;;;;;;13.70;10.63;;;;;;;19.26;68.97;101888.84;4937636;28;20039;-65
2022/07/24 03:05:09;;;;;;;13.82;10.07;;;;;;;19.20;69.52;101875.75;4938190;28;20355;-65
2022/07/24 03:07:36;;;;;;;11.85;10.00;;;;;;;19.20;69.54;101877.50;4938891;28;20042;-66
2022/07/24 03:10:03;;;;;;;13.23;10.65;;;;;;;19.15;69.43;101882.66;4945073;28;20058;-66
2022/07/24 03:12:28;;;;;;;12.55;10.55;;;;;;;19.16;69.05;101879.19;4939369;28;20371;-65
2022/07/24 03:14:54;;;;;;;12.93;10.23;;;;;;;19.12;69.49;101885.25;4936146;28;20039;-66
2022/07/24 03:17:19;;;;;;;15.80;10.55;;;;;;;19.11;69.50;101882.63;4938560;28;20083;-66
2022/07/24 03:19:44;;;;;;;14.00;10.45;;;;;;;19.07;69.47;101873.03;4941966;28;20031;-66
2022/07/24 03:22:10;;;;;;;17.02;10.75;;;;;;;19.05;69.36;101877.34;4940691;28;20044;-65
2022/07/24 03:24:35;;;;;;;14.82;10.80;;;;;;;19.01;69.70;101868.66;4938105;28;20434;-65
2022/07/24 03:27:01;;;;;;;14.65;10.88;;;;;;;18.99;69.58;101868.63;4936127;28;20074;-66
2022/07/24 03:29:26;;;;;;;14.88;10.98;;;;;;;18.98;69.82;101863.38;4939362;28;20033;-65
2022/07/24 03:31:51;;;;;;;11.88;10.68;;;;;;;18.89;70.46;101874.59;4939073;28;20081;-66
2022/07/24 03:34:17;;;;;;;12.18;10.88;;;;;;;18.92;70.20;101865.94;4939019;28;20134;-65
2022/07/24 03:36:42;;;;;;;13.35;11.13;;;;;;;18.91;70.62;101869.41;4936833;28;20613;-65
2022/07/24 03:39:07;;;;;;;14.93;11.15;;;;;;;18.92;70.24;101869.41;4936087;28;20130;-66
2022/07/24 03:41:33;;;;;;;13.68;11.00;;;;;;;18.86;70.77;101871.97;4939875;28;20039;-64
2022/07/24 03:43:59;;;;;;;13.32;10.65;;;;;;;18.86;70.72;101881.50;4938904;28;20077;-65
2022/07/24 03:46:24;;;;;;;13.15;10.45;;;;;;;18.86;70.91;101881.50;4935439;28;20074;-65
2022/07/24 03:48:49;;;;;;;13.65;11.18;;;;;;;18.80;71.01;101878.84;4941329;28;20035;-66
2022/07/24 03:51:15;;;;;;;13.57;11.27;;;;;;;18.77;71.13;101873.63;4945874;28;20035;-65
2022/07/24 03:53:40;;;;;;;14.18;11.80;;;;;;;18.78;71.14;101867.53;4943387;28;20043;-64
2022/07/24 03:56:08;;;;;;;16.38;12.32;;;;;;;18.76;71.37;101864.94;4941212;28;20126;-65
2022/07/24 03:58:34;;;;;;;15.00;11.07;;;;;;;18.73;71.86;101873.56;4940398;28;20012;-65
2022/07/24 04:01:00;;;;;;;17.50;12.48;;;;;;;18.65;72.27;101867.38;4944740;28;20023;-65
2022/07/24 04:03:25;;;;;;;16.15;13.27;;;;;;;18.68;72.29;101866.56;4940013;28;20035;-65
2022/07/24 04:05:50;;;;;;;14.43;12.45;;;;;;;18.67;72.63;101865.69;4937532;28;20031;-65
2022/07/24 04:08:16;;;;;;;18.98;12.93;;;;;;;18.63;72.79;101866.50;4941602;28;20078;-65
2022/07/24 04:10:41;;;;;;;17.95;13.30;;;;;;;18.65;72.91;101869.13;4948333;28;20394;-65
2022/07/24 04:13:06;;;;;;;19.77;13.43;;;;;;;18.63;72.77;101863.03;4941840;28;20045;-65
2022/07/24 04:15:32;;;;;;;16.02;13.30;;;;;;;18.61;72.90;101865.59;4939100;28;20058;-65
2022/07/24 04:17:57;;;;;;;17.27;12.90;;;;;;;18.63;72.79;101860.41;4939966;28;20055;-66
2022/07/24 04:20:23;;;;;;;15.73;13.25;;;;;;;18.65;73.19;101866.50;4941485;28;20051;-65
2022/07/24 04:22:48;;;;;;;21.77;14.32;;;;;;;18.62;73.15;101856.03;4939236;28;20027;-66
2022/07/24 04:25:14;;;;;;;19.08;14.93;;;;;;;18.62;73.67;101869.06;4941949;28;20432;-66
2022/07/24 04:27:39;;;;;;;20.27;14.85;;;;;;;18.64;73.84;101878.66;4937585;28;20074;-65
2022/07/24 04:30:06;;;;;;;19.92;16.25;;;;;;;18.64;73.60;101880.41;4940999;28;20085;-66
2022/07/24 04:32:31;;;;;;;22.15;16.05;;;;;;;18.65;73.47;101876.94;4943877;28;20039;-66
2022/07/24 04:34:57;;;;;;;21.80;16.23;;;;;;;18.68;73.71;101879.59;4942437;28;20034;-65
2022/07/24 04:37:22;;;;;;;19.02;16.98;;;;;;;18.65;74.07;101887.34;4942382;28;20042;-65
2022/07/24 04:39:47;;;;;;;21.27;16.50;;;;;;;18.62;74.06;101884.69;4938776;28;20035;-66
2022/07/24 04:42:14;;;;;;;22.63;17.40;;;;;;;18.64;73.73;101886.47;4939203;28;20019;-66
2022/07/24 04:44:39;;;;;;;22.10;17.23;;;;;;;18.63;73.87;101887.34;4943845;29;20599;-65
2022/07/24 04:47:05;;;;;;;19.60;17.35;;;;;;;18.64;73.65;101883.88;4945327;28;20043;-66
2022/07/24 04:49:30;;;;;;;23.00;17.77;;;;;;;18.64;74.06;101883.00;4943018;28;20043;-65
2022/07/24 04:51:56;;;;;;;24.83;17.98;;;;;;;18.65;74.00;101889.94;4940350;28;20047;-65
2022/07/24 04:54:21;;;;;;;26.17;18.80;;;;;;;18.65;73.99;101887.34;4939900;28;21420;-65
2022/07/24 04:56:46;;;;;;;23.00;18.85;;;;;;;18.63;74.40;101884.75;4936957;28;20036;-64
2022/07/24 04:59:12;;;;;;;25.88;18.98;;;;;;;18.63;74.67;101884.75;4944267;28;20035;-65
2022/07/24 05:01:38;;;;;;;26.08;20.00;;;;;;;18.63;75.19;101879.53;4940928;28;20092;-66
2022/07/24 05:04:03;;;;;;;28.25;20.10;;;;;;;18.67;75.43;101881.31;4940611;28;20036;-65
2022/07/24 05:06:29;;;;;;;22.42;19.45;;;;;;;18.70;75.60;101868.34;4939875;28;20031;-65
2022/07/24 05:08:54;;;;;;;26.75;21.42;;;;;;;18.66;75.73;101869.13;4938567;28;20035;-65
2022/07/24 05:11:20;;;;;;;27.40;21.60;;;;;;;18.71;76.20;101872.69;4944253;28;20035;-65
2022/07/24 05:13:45;;;;;;;28.85;21.52;;;;;;;18.75;75.47;101876.22;4944180;28;20055;-65
2022/07/24 05:16:11;;;;;;;29.13;21.10;;;;;;;18.79;75.77;101869.28;4940561;28;20053;-66
2022/07/24 05:18:36;;;;;;;30.55;22.02;;;;;;;18.78;75.67;101864.94;4937673;28;20058;-65
2022/07/24 05:21:02;;;;;;;30.92;21.50;;;;;;;18.84;75.88;101878.91;4938382;28;20036;-65
2022/07/24 05:23:28;;;;;;;26.70;22.08;;;;;;;18.84;75.89;101878.91;4941797;28;20522;-66
2022/07/24 05:25:53;;;;;;;30.58;22.42;;;;;;;18.87;76.17;101881.56;4941360;28;20053;-65
2022/07/24 05:28:19;;;;;;;30.67;22.45;;;;;;;18.86;76.60;101887.59;4939920;28;20027;-66
2022/07/24 05:30:44;;;;;;;33.75;23.08;;;;;;;18.88;76.24;101885.91;4938889;29;20044;-65
2022/07/24 05:33:10;;;;;;;28.02;22.33;;;;;;;18.98;76.67;101892.94;4936726;28;20121;-65
2022/07/24 05:35:35;;;;;;;28.23;22.80;;;;;;;18.99;76.42;101889.50;4937327;28;20031;-66
2022/07/24 05:38:00;;;;;;;33.17;23.38;;;;;;;19.03;76.37;101890.38;4940365;28;20661;-65
2022/07/24 05:40:26;;;;;;;32.05;23.45;;;;;;;19.11;76.16;101900.88;4940989;29;20031;-65
2022/07/24 05:42:51;;;;;;;32.20;24.70;;;;;;;19.11;76.39;101899.16;4936093;28;20044;-65
2022/07/24 05:45:17;;;;;;;32.90;23.38;;;;;;;19.13;76.57;101894.81;4938313;28;20058;-65
2022/07/24 05:47:42;;;;;;;35.00;24.38;;;;;;;19.19;76.52;101894.00;4938895;28;20450;-65
2022/07/24 05:50:09;;;;;;;33.72;24.45;;;;;;;19.23;76.44;101903.59;4936567;28;20119;-65
2022/07/24 05:52:35;;;;;;;34.40;24.65;;;;;;;19.28;76.85;101897.56;4939499;28;20034;-65
2022/07/24 05:55:01;;;;;;;34.25;25.42;;;;;;;19.34;76.07;101895.88;4938357;28;20027;-65
2022/07/24 05:57:27;;;;;;;33.33;24.77;;;;;;;19.40;76.13;101901.13;4940974;28;20116;-66
2022/07/24 05:59:52;;;;;;;30.63;24.65;;;;;;;19.48;75.84;101899.47;4939367;28;20077;-66
2022/07/24 06:02:17;;;;;;;33.00;25.20;;;;;;;19.53;76.50;101892.53;4942636;28;20043;-66
2022/07/24 06:04:43;;;;;;;32.30;25.02;;;;;;;19.59;75.95;101900.44;4937603;28;20031;-65
2022/07/24 06:07:10;;;;;;;30.52;25.25;;;;;;;19.61;75.73;101900.47;4939940;28;20032;-65
2022/07/24 06:09:36;;;;;;;36.05;26.17;;;;;;;19.64;75.98;101903.09;4935972;28;20035;-65
2022/07/24 06:12:02;;;;;;;34.15;25.98;;;;;;;19.71;75.84;101903.13;4940137;28;20123;-66
2022/07/24 06:14:28;;;;;;;33.28;26.85;;;;;;;19.81;75.79;101902.34;4935446;28;20125;-65
2022/07/24 06:16:53;;;;;;;33.05;25.70;;;;;;;19.87;75.33;101905.88;4943338;28;20039;-65
2022/07/24 06:19:19;;;;;;;39.55;26.33;;;;;;;19.89;74.08;101906.72;4941344;28;20066;-66
2022/07/24 06:21:44;;;;;;;33.70;25.40;;;;;;;20.00;73.81;101900.72;4939206;28;20035;-67
2022/07/24 06:24:09;;;;;;;35.92;26.17;;;;;;;20.12;74.26;101907.75;4921534;28;20115;-66
2022/07/24 06:26:35;;;;;;;33.85;25.63;;;;;;;20.09;73.59;101906.00;4940747;28;20596;-66
2022/07/24 06:29:00;;;;;;;34.05;25.05;;;;;;;20.16;73.32;101906.91;4943370;28;20070;-66
2022/07/24 06:31:25;;;;;;;33.33;24.45;;;;;;;20.26;73.22;101907.81;4943659;28;20468;-66
2022/07/24 06:33:51;;;;;;;34.95;25.15;;;;;;;20.35;73.33;101911.34;4939815;29;20067;-65
2022/07/24 06:36:16;;;;;;;33.70;25.67;;;;;;;20.42;72.71;101909.63;4937488;28;20036;-67
2022/07/24 06:38:42;;;;;;;30.10;24.42;;;;;;;20.49;71.73;101900.97;4940553;28;20024;-66
2022/07/24 06:41:07;;;;;;;33.85;24.83;;;;;;;20.51;72.47;101898.38;4937715;28;20040;-64
2022/07/24 06:43:32;;;;;;;32.95;24.60;;;;;;;20.64;72.24;101904.53;4938540;28;20089;-64
2022/07/24 06:45:58;;;;;;;34.00;24.52;;;;;;;20.75;72.08;101900.16;4940829;28;20069;-66
2022/07/24 06:48:23;;;;;;;29.55;23.88;;;;;;;20.76;71.33;101897.59;4937381;28;20038;-65
2022/07/24 06:50:48;;;;;;;30.10;22.75;;;;;;;20.91;71.97;101901.09;4936278;28;20071;-65
2022/07/24 06:53:14;;;;;;;30.05;22.08;;;;;;;20.94;71.21;101896.75;4936527;28;20065;-65
2022/07/24 06:55:39;;;;;;;27.90;21.77;;;;;;;21.04;70.99;101893.25;4936207;28;20050;-66
2022/07/24 06:58:05;;;;;;;25.08;19.27;;;;;;;21.25;70.31;101892.41;4936117;28;20485;-65
2022/07/24 07:00:30;;;;;;;24.63;18.65;;;;;;;21.31;68.78;101897.69;4937759;28;20109;-66
2022/07/24 07:02:55;;;;;;;23.40;18.10;;;;;;;21.44;68.50;101900.31;4935876;28;20038;-66
2022/07/24 07:05:21;;;;;;;22.95;16.85;;;;;;;21.47;68.77;101892.44;4940561;29;20118;-65
2022/07/24 07:07:46;;;;;;;19.95;16.05;;;;;;;21.55;68.29;101895.94;4937704;28;20035;-65
2022/07/24 07:10:12;;;;;;;21.65;16.80;;;;;;;21.62;67.93;101892.44;4938153;28;20031;-65
2022/07/24 07:12:39;;;;;;;18.73;14.52;;;;;;;21.73;66.58;101884.56;4937170;28;20479;-67
2022/07/24 07:15:05;;;;;;;19.25;14.82;;;;;;;21.82;64.98;101893.25;4926995;28;20043;-66
2022/07/24 07:17:31;;;;;;;18.02;13.45;;;;;;;21.95;65.12;101897.59;4939727;28;20679;-66
2022/07/24 07:19:56;;;;;;;16.95;13.82;;;;;;;22.05;65.17;101903.69;4939537;28;20113;-66
2022/07/24 07:22:21;;;;;;;18.58;12.90;;;;;;;22.07;65.42;101915.03;4940936;28;20425;-66
2022/07/24 07:24:47;;;;;;;18.05;12.05;;;;;;;22.16;64.66;101914.19;4947394;28;20068;-66
2022/07/24 07:27:12;;;;;;;17.83;12.65;;;;;;;22.28;64.17;101911.50;4944456;28;20043;-66
2022/07/24 07:29:41;;;;;;;15.60;11.07;;;;;;;22.31;63.56;101911.47;4944151;28;20035;-67
2022/07/24 07:32:07;;;;;;;;;;;;;;;22.43;64.92;101906.19;4935588;28;20144;-66
2022/07/24 07:34:32;;;;;;;12.93;9.27;;;;;;;22.56;61.78;101900.88;4929854;28;19949;-65
2022/07/24 07:36:57;;;;;;;11.13;8.43;;;;;;;22.52;60.60;101914.91;4947570;28;20032;-66
2022/07/24 07:39:23;;;;;;;11.10;7.45;;;;;;;22.60;60.85;101900.88;4946815;28;20102;-65
2022/07/24 07:41:48;;;;;;;12.15;6.18;;;;;;;22.72;57.47;101899.94;4944760;28;20409;-64
2022/07/24 07:44:14;;;;;;;7.40;5.65;;;;;;;22.74;56.73;101904.28;4953252;28;20048;-67
2022/07/24 07:46:39;;;;;;;7.90;5.22;;;;;;;22.85;56.83;101896.34;4941482;28;20046;-72
2022/07/24 07:49:04;;;;;;;7.57;5.35;;;;;;;22.93;56.63;101899.84;4950257;28;20122;-64
2022/07/24 07:51:30;;;;;;;7.18;5.47;;;;;;;22.92;56.55;101905.09;4947151;28;20069;-65
2022/07/24 07:53:55;;;;;;;8.63;4.93;;;;;;;22.99;55.72;101894.56;4947540;28;20382;-63
2022/07/24 07:56:21;;;;;;;6.40;4.50;;;;;;;23.08;57.74;101898.88;4946057;28;20039;-62
2022/07/24 07:58:46;;;;;;;8.23;4.82;;;;;;;23.13;57.17;101891.84;4959709;28;20035;-64
2022/07/24 08:01:12;;;;;;;6.70;4.88;;;;;;;23.16;55.79;101891.78;4943458;28;20042;-64
2022/07/24 08:03:37;;;;;;;4.78;3.60;;;;;;;23.27;55.30;101882.09;4946441;28;20039;-64
2022/07/24 08:06:03;;;;;;;5.40;3.33;;;;;;;23.33;56.53;101878.53;4943587;28;20269;-64
2022/07/24 08:08:29;;;;;;;4.45;3.13;;;;;;;23.42;55.32;101886.34;4945971;28;20039;-64
2022/07/24 08:10:55;;;;;;;5.75;3.05;;;;;;;23.47;54.67;101888.91;4947671;28;20108;-65
2022/07/24 08:13:20;;;;;;;3.33;2.60;;;;;;;23.53;54.38;101886.22;4947906;28;20050;-64
2022/07/24 08:15:45;;;;;;;3.83;3.00;;;;;;;23.59;53.72;101887.94;4947459;28;20085;-64
2022/07/24 08:18:11;;;;;;;7.45;3.13;;;;;;;23.65;53.93;101887.91;4946704;28;20107;-64
2022/07/24 08:20:36;;;;;;;3.63;2.92;;;;;;;23.64;54.47;101891.41;4949252;28;20093;-61
2022/07/24 08:23:02;;;;;;;3.95;3.20;;;;;;;23.69;52.74;101889.63;4944726;28;20584;-62
2022/07/24 08:25:28;;;;;;;3.78;2.72;;;;;;;23.75;54.53;101890.44;4942318;28;20053;-61
2022/07/24 08:27:53;;;;;;;4.90;2.67;;;;;;;23.85;53.61;101893.84;4948944;28;20031;-61
2022/07/24 08:30:26;;;;;;;4.32;2.88;;;;;;;23.91;53.58;101899.03;4949663;28;20110;-64
2022/07/24 08:32:51;;;;;;;4.35;2.92;;;;;;;23.93;53.12;101902.50;4946800;28;20043;-62
2022/07/24 08:35:17;;;;;;;3.47;2.97;;;;;;;23.95;52.32;101905.09;4951341;28;20050;-62
2022/07/24 08:37:43;;;;;;;6.05;2.72;;;;;;;24.01;52.61;101894.53;4945411;28;20062;-64
2022/07/24 08:40:10;;;;;;;4.13;2.72;;;;;;;24.05;53.59;101901.50;4938305;28;20446;-62
2022/07/24 08:42:36;;;;;;;3.65;2.55;;;;;;;24.16;53.19;101896.13;4946780;28;20146;-63
2022/07/24 08:45:04;;;;;;;4.35;2.47;;;;;;;24.20;52.40;101895.16;4945436;28;20051;-63
2022/07/24 08:47:32;;;;;;;4.03;3.03;;;;;;;24.18;52.55;101886.44;4951510;28;20085;-63
2022/07/24 08:49:58;;;;;;;3.70;2.40;;;;;;;24.24;53.24;101887.25;4942146;28;20100;-63
2022/07/24 08:52:25;;;;;;;4.45;2.80;;;;;;;24.36;52.55;101890.63;4943868;28;20035;-62
2022/07/24 08:54:51;;;;;;;5.28;2.80;;;;;;;24.31;52.02;101882.78;4941780;28;20035;-60
2022/07/24 08:57:17;;;;;;;3.20;2.40;;;;;;;24.43;52.75;101892.28;4948356;28;20043;-63
2022/07/24 08:59:42;;;;;;;3.03;2.25;;;;;;;24.49;52.70;101885.19;4949826;28;20031;-62
2022/07/24 09:02:08;;;;;;;3.90;2.60;;;;;;;24.48;52.45;101886.09;4947888;28;20119;-62
2022/07/24 09:04:39;;;;;;;3.30;2.45;;;;;;;24.56;53.17;101889.47;4947243;29;20028;-63
2022/07/24 09:07:10;;;;;;;2.88;2.40;;;;;;;24.59;52.68;101889.44;4950407;28;20063;-62
2022/07/24 09:09:40;;;;;;;4.75;2.50;;;;;;;24.65;53.08;101890.25;4952122;28;20035;-62
2022/07/24 09:12:09;;;;;;;6.00;2.42;;;;;;;24.71;53.51;101887.53;4945462;28;20023;-63
2022/07/24 09:14:38;;;;;;;5.30;3.00;;;;;;;24.77;54.03;101877.78;4947593;28;20020;-63
2022/07/24 09:17:16;;;;;;;5.95;2.95;;;;;;;24.84;53.12;101871.53;4948301;28;20062;-63
2022/07/24 09:19:52;;;;;;;3.53;2.50;;;;;;;24.86;53.61;101868.88;4955060;28;20037;-62
2022/07/24 09:22:26;;;;;;;4.13;2.40;;;;;;;24.92;53.46;101865.28;4945953;29;20417;-63
2022/07/24 09:25:06;;;;;;;4.05;2.65;;;;;;;24.96;53.17;101867.84;4946916;29;20045;-62
2022/07/24 09:27:36;;;;;;;2.90;2.60;;;;;;;24.99;52.00;101859.03;4949370;28;20098;-64
2022/07/24 09:30:03;;;;;;;3.38;2.70;;;;;;;25.11;51.84;101859.72;4947843;28;20035;-62
2022/07/24 09:32:29;;;;;;;4.32;2.72;;;;;;;25.12;52.43;101861.50;4948148;28;20058;-61
2022/07/24 09:34:55;;;;;;;5.47;2.60;;;;;;;25.13;52.98;101854.47;4949429;28;20820;-64
2022/07/24 09:37:21;;;;;;;2.50;2.30;;;;;;;25.17;52.73;101852.63;4943252;28;20494;-61
2022/07/24 09:39:47;;;;;;;3.65;2.40;;;;;;;25.26;52.48;101853.34;4939753;28;20031;-61
2022/07/24 09:42:14;;;;;;;2.97;2.67;;;;;;;25.27;53.27;101856.84;4948711;28;20047;-63
2022/07/24 09:44:40;;;;;;;4.57;2.40;;;;;;;25.29;52.96;101860.31;4947043;28;20478;-64
2022/07/24 09:47:08;;;;;;;2.50;2.30;;;;;;;25.31;51.80;101848.88;4945380;28;20109;-62
2022/07/24 09:49:34;;;;;;;4.18;2.38;;;;;;;25.36;51.79;101848.78;4945020;28;20031;-60
2022/07/24 09:52:19;;;;;;;4.30;2.67;;;;;;;25.37;52.96;101854.03;4948067;28;20031;-62
2022/07/24 09:54:47;;;;;;;5.03;2.70;;;;;;;25.46;52.59;101847.72;4945827;29;20039;-63
2022/07/24 09:57:29;;;;;;;6.00;2.85;;;;;;;25.49;53.08;101841.56;4952103;28;20031;-63
2022/07/24 09:59:58;;;;;;;4.32;2.33;;;;;;;25.53;51.67;101845.84;4946950;28;20035;-63
2022/07/24 10:02:26;;;;;;;4.88;2.65;;;;;;;25.61;52.79;101846.59;4945330;28;20034;-63
2022/07/24 10:04:52;;;;;;;4.10;2.20;;;;;;;25.67;51.76;101836.81;4944483;28;20042;-64
2022/07/24 10:07:20;;;;;;;4.30;2.40;;;;;;;25.71;51.23;101836.72;4930482;28;20027;-65
2022/07/24 10:09:48;;;;;;;2.83;2.30;;;;;;;25.78;51.58;101838.38;4949415;28;20041;-64
2022/07/24 10:12:15;;;;;;;2.95;2.45;;;;;;;25.73;51.70;101835.84;4955603;28;20306;-61
2022/07/24 10:14:41;;;;;;;3.67;2.30;;;;;;;25.84;51.43;101831.22;4960686;28;20036;-64
2022/07/24 10:17:09;;;;;;;3.92;2.50;;;;;;;25.88;52.33;101825.00;4936810;28;20409;-62
2022/07/24 10:19:53;;;;;;;4.97;2.40;;;;;;;25.96;51.83;101821.34;4941278;28;20049;-61
2022/07/24 10:22:21;;;;;;;3.88;2.33;;;;;;;25.96;51.38;101810.78;4942647;28;20380;-61
2022/07/24 10:24:57;;;;;;;3.33;2.67;;;;;;;26.03;51.71;101812.38;4935828;28;20031;-61
2022/07/24 10:27:37;;;;;;;3.38;2.55;;;;;;;26.08;52.26;101815.81;4942211;28;20031;-62
2022/07/24 10:30:07;;;;;;;5.03;2.65;;;;;;;26.16;51.32;101819.16;4938649;28;20035;-63
2022/07/24 10:32:34;;;;;;;2.67;2.15;;;;;;;26.14;50.46;101815.66;4937279;28;20032;-62
2022/07/24 10:35:09;;;;;;;5.20;2.50;;;;;;;26.13;50.74;101806.91;4940009;28;20100;-60
2022/07/24 10:37:37;;;;;;;2.28;2.08;;;;;;;26.28;51.43;101807.47;4936850;28;20040;-62
2022/07/24 10:40:18;;;;;;;2.47;2.28;;;;;;;26.23;50.74;101812.00;4938265;28;20062;-62
2022/07/24 10:43:05;;;;;;;2.75;2.20;;;;;;;26.32;50.90;101810.00;4935862;28;20103;-61
2022/07/24 10:46:06;;;;;;;3.55;2.13;;;;;;;26.34;49.03;101804.72;4942024;28;20035;-62
2022/07/24 10:48:35;;;;;;;4.88;2.22;;;;;;;26.45;49.92;101805.34;4941456;28;20031;-63
2022/07/24 10:51:10;;;;;;;4.03;2.22;;;;;;;26.45;50.27;101810.63;4935393;28;20028;-62
2022/07/24 10:53:38;;;;;;;4.72;2.55;;;;;;;26.45;50.14;101797.44;4940062;28;20106;-63
2022/07/24 10:56:15;;;;;;;2.53;2.13;;;;;;;26.50;49.75;101807.88;4941407;28;20085;-62
2022/07/24 10:59:10;;;;;;;4.07;2.42;;;;;;;26.51;49.75;101799.91;4940970;28;20085;-64
2022/07/24 11:01:42;;;;;;;3.65;2.47;;;;;;;26.53;48.62;101795.50;4936656;28;20028;-63
2022/07/24 11:04:19;;;;;;;3.88;2.30;;;;;;;26.63;49.56;101791.72;4947690;29;20089;-63
2022/07/24 11:06:48;;;;;;;2.58;2.10;;;;;;;26.64;49.16;101798.75;4945670;28;20164;-63
2022/07/24 11:09:15;;;;;;;4.78;2.38;;;;;;;26.64;47.88;101796.13;4947076;28;20040;-62
2022/07/24 11:11:42;;;;;;;3.70;2.20;;;;;;;26.69;48.53;101786.28;4943687;28;20032;-62